sensor_id;sensor_type;location;lat;lon;timestamp;pressure;altitude;pressure_sealevel;temperature;humidity
79703;BME280;69172;52.352;5.006;2023-05-15T00:01:33;101650.34;;;11.10;86.33
79703;BME280;69172;52.352;5.006;2023-05-15T00:03:59;101654.03;;;11.14;86.01
79703;BME280;69172;52.352;5.006;2023-05-15T00:06:25;101654.88;;;11.14;85.68
79703;BME280;69172;52.352;5.006;2023-05-15T00:08:52;101649.25;;;11.07;86.19
79703;BME280;69172;52.352;5.006;2023-05-15T00:11:17;101643.88;;;11.04;85.97
79703;BME280;69172;52.352;5.006;2023-05-15T00:13:43;101640.53;;;11.05;85.89
79703;BME280;69172;52.352;5.006;2023-05-15T00:16:08;101634.28;;;11.01;86.19
79703;BME280;69172;52.352;5.006;2023-05-15T00:18:34;101622.09;;;10.99;86.71
79703;BME280;69172;52.352;5.006;2023-05-15T00:20:59;101620.44;;;10.99;86.47
79703;BME280;69172;52.352;5.006;2023-05-15T00:23:25;101620.44;;;10.99;86.79
79703;BME280;69172;52.352;5.006;2023-05-15T00:25:50;101621.31;;;11.00;87.01
79703;BME280;69172;52.352;5.006;2023-05-15T00:28:15;101616.25;;;11.01;86.82
79703;BME280;69172;52.352;5.006;2023-05-15T00:30:41;101612.78;;;11.01;87.06
79703;BME280;69172;52.352;5.006;2023-05-15T00:33:06;101611.13;;;11.01;86.91
79703;BME280;69172;52.352;5.006;2023-05-15T00:35:32;101609.44;;;11.02;87.22
79703;BME280;69172;52.352;5.006;2023-05-15T00:37:57;101612.72;;;10.99;87.29
79703;BME280;69172;52.352;5.006;2023-05-15T00:40:24;101603.78;;;10.94;87.16
79703;BME280;69172;52.352;5.006;2023-05-15T00:42:51;101607.56;;;10.99;87.27
79703;BME280;69172;52.352;5.006;2023-05-15T00:45:16;101602.00;;;10.93;87.03
79703;BME280;69172;52.352;5.006;2023-05-15T00:47:44;101602.91;;;10.94;87.05
79703;BME280;69172;52.352;5.006;2023-05-15T00:50:10;101598.44;;;10.91;87.07
79703;BME280;69172;52.352;5.006;2023-05-15T00:52:36;101594.19;;;10.92;86.74
79703;BME280;69172;52.352;5.006;2023-05-15T00:55:02;101593.00;;;10.87;86.91
79703;BME280;69172;52.352;5.006;2023-05-15T00:57:30;101598.16;;;10.87;87.26
79703;BME280;69172;52.352;5.006;2023-05-15T00:59:55;101601.72;;;10.89;86.82
79703;BME280;69172;52.352;5.006;2023-05-15T01:02:21;101590.09;;;10.82;86.94
79703;BME280;69172;52.352;5.006;2023-05-15T01:04:47;101588.56;;;10.84;87.17
79703;BME280;69172;52.352;5.006;2023-05-15T01:07:13;101584.09;;;10.82;86.78
79703;BME280;69172;52.352;5.006;2023-05-15T01:09:41;101591.47;;;10.77;87.32
79703;BME280;69172;52.352;5.006;2023-05-15T01:12:08;101583.88;;;10.79;87.29
79703;BME280;69172;52.352;5.006;2023-05-15T01:14:35;101589.59;;;10.74;87.46
79703;BME280;69172;52.352;5.006;2023-05-15T01:17:00;101595.53;;;10.73;87.93
79703;BME280;69172;52.352;5.006;2023-05-15T01:19:25;101593.63;;;10.71;87.94
79703;BME280;69172;52.352;5.006;2023-05-15T01:25:21;101593.56;;;10.69;87.37
79703;BME280;69172;52.352;5.006;2023-05-15T01:27:53;101594.53;;;10.71;87.33
79703;BME280;69172;52.352;5.006;2023-05-15T01:30:28;101592.66;;;10.69;87.72
79703;BME280;69172;52.352;5.006;2023-05-15T01:33:05;101586.53;;;10.67;87.33
79703;BME280;69172;52.352;5.006;2023-05-15T01:35:37;101590.78;;;10.66;87.99
79703;BME280;69172;52.352;5.006;2023-05-15T01:38:29;101588.88;;;10.64;88.13
79703;BME280;69172;52.352;5.006;2023-05-15T01:43:43;101597.56;;;10.53;88.05
79703;BME280;69172;52.352;5.006;2023-05-15T01:46:13;101595.97;;;10.55;88.08
79703;BME280;69172;52.352;5.006;2023-05-15T01:48:40;101584.50;;;10.50;88.48
79703;BME280;69172;52.352;5.006;2023-05-15T01:51:09;101585.97;;;10.46;88.49
79703;BME280;69172;52.352;5.006;2023-05-15T01:53:36;101588.66;;;10.48;88.38
79703;BME280;69172;52.352;5.006;2023-05-15T01:56:05;101589.44;;;10.47;88.30
79703;BME280;69172;52.352;5.006;2023-05-15T01:58:32;101584.75;;;10.41;88.33
79703;BME280;69172;52.352;5.006;2023-05-15T02:00:58;101589.03;;;10.41;88.85
79703;BME280;69172;52.352;5.006;2023-05-15T02:03:25;101580.44;;;10.40;89.10
79703;BME280;69172;52.352;5.006;2023-05-15T02:05:53;101586.13;;;10.36;89.01
79703;BME280;69172;52.352;5.006;2023-05-15T02:08:21;101580.91;;;10.35;89.23
79703;BME280;69172;52.352;5.006;2023-05-15T02:10:48;101577.72;;;10.39;89.27
79703;BME280;69172;52.352;5.006;2023-05-15T02:13:14;101581.97;;;10.38;89.38
79703;BME280;69172;52.352;5.006;2023-05-15T02:15:41;101587.03;;;10.37;89.35
79703;BME280;69172;52.352;5.006;2023-05-15T02:18:06;101586.59;;;10.31;89.91
79703;BME280;69172;52.352;5.006;2023-05-15T02:20:31;101584.72;;;10.28;89.80
79703;BME280;69172;52.352;5.006;2023-05-15T02:22:57;101580.56;;;10.30;89.88
79703;BME280;69172;52.352;5.006;2023-05-15T02:25:38;101581.03;;;10.25;89.70
79703;BME280;69172;52.352;5.006;2023-05-15T02:28:08;101580.84;;;10.22;89.90
79703;BME280;69172;52.352;5.006;2023-05-15T02:30:45;101584.28;;;10.22;90.37
79703;BME280;69172;52.352;5.006;2023-05-15T02:33:44;101584.88;;;10.18;90.26
79703;BME280;69172;52.352;5.006;2023-05-15T02:36:19;101588.22;;;10.17;90.16
79703;BME280;69172;52.352;5.006;2023-05-15T02:38:47;101584.75;;;10.16;89.98
79703;BME280;69172;52.352;5.006;2023-05-15T02:41:14;101586.56;;;10.18;90.36
79703;BME280;69172;52.352;5.006;2023-05-15T02:43:41;101582.00;;;10.13;90.38
79703;BME280;69172;52.352;5.006;2023-05-15T02:46:08;101591.16;;;10.10;90.30
79703;BME280;69172;52.352;5.006;2023-05-15T02:48:36;101587.66;;;10.09;90.05
79703;BME280;69172;52.352;5.006;2023-05-15T02:51:04;101581.84;;;10.12;89.79
79703;BME280;69172;52.352;5.006;2023-05-15T02:53:31;101590.34;;;10.11;90.21
79703;BME280;69172;52.352;5.006;2023-05-15T02:55:56;101582.53;;;10.09;89.53
79703;BME280;69172;52.352;5.006;2023-05-15T02:58:22;101579.53;;;10.03;88.55
79703;BME280;69172;52.352;5.006;2023-05-15T03:00:47;101573.50;;;10.03;88.20
79703;BME280;69172;52.352;5.006;2023-05-15T03:03:12;101567.28;;;9.99;88.64
79703;BME280;69172;52.352;5.006;2023-05-15T03:05:38;101574.97;;;9.99;88.69
79703;BME280;69172;52.352;5.006;2023-05-15T03:08:04;101564.38;;;9.95;88.30
79703;BME280;69172;52.352;5.006;2023-05-15T03:10:29;101556.81;;;9.85;88.34
79703;BME280;69172;52.352;5.006;2023-05-15T03:12:55;101553.94;;;9.80;88.19
79703;BME280;69172;52.352;5.006;2023-05-15T03:15:22;101558.09;;;9.78;87.89
79703;BME280;69172;52.352;5.006;2023-05-15T03:17:48;101564.53;;;9.73;87.68
79703;BME280;69172;52.352;5.006;2023-05-15T03:20:13;101564.44;;;9.72;88.13
79703;BME280;69172;52.352;5.006;2023-05-15T03:22:40;101575.50;;;9.71;88.14
79703;BME280;69172;52.352;5.006;2023-05-15T03:25:10;101567.78;;;9.71;88.22
79703;BME280;69172;52.352;5.006;2023-05-15T03:27:36;101558.31;;;9.70;87.99
79703;BME280;69172;52.352;5.006;2023-05-15T03:30:03;101565.91;;;9.68;88.48
79703;BME280;69172;52.352;5.006;2023-05-15T03:32:29;101564.44;;;9.72;88.68
79703;BME280;69172;52.352;5.006;2023-05-15T03:34:54;101567.03;;;9.72;88.58
79703;BME280;69172;52.352;5.006;2023-05-15T03:37:20;101568.22;;;9.77;88.20
79703;BME280;69172;52.352;5.006;2023-05-15T03:39:45;101554.41;;;9.75;88.20
79703;BME280;69172;52.352;5.006;2023-05-15T03:42:11;101551.63;;;9.72;88.31
79703;BME280;69172;52.352;5.006;2023-05-15T03:44:36;101558.63;;;9.74;88.64
79703;BME280;69172;52.352;5.006;2023-05-15T03:47:01;101563.22;;;9.78;88.72
79703;BME280;69172;52.352;5.006;2023-05-15T03:49:26;101568.44;;;9.80;89.02
79703;BME280;69172;52.352;5.006;2023-05-15T03:51:52;101562.72;;;9.84;88.39
79703;BME280;69172;52.352;5.006;2023-05-15T03:54:17;101564.81;;;9.89;88.08
79703;BME280;69172;52.352;5.006;2023-05-15T03:56:43;101560.59;;;9.90;88.25
79703;BME280;69172;52.352;5.006;2023-05-15T03:59:09;101558.38;;;9.94;88.31
79703;BME280;69172;52.352;5.006;2023-05-15T04:01:35;101568.81;;;9.97;88.54
79703;BME280;69172;52.352;5.006;2023-05-15T04:04:00;101569.25;;;10.03;87.99
79703;BME280;69172;52.352;5.006;2023-05-15T04:06:25;101572.84;;;10.05;87.44
79703;BME280;69172;52.352;5.006;2023-05-15T04:08:51;101571.56;;;10.12;86.65
79703;BME280;69172;52.352;5.006;2023-05-15T04:11:16;101575.28;;;10.15;86.73
79703;BME280;69172;52.352;5.006;2023-05-15T04:13:41;101575.06;;;10.12;86.49
79703;BME280;69172;52.352;5.006;2023-05-15T04:16:07;101577.81;;;10.27;85.93
79703;BME280;69172;52.352;5.006;2023-05-15T04:18:32;101583.72;;;10.26;84.87
79703;BME280;69172;52.352;5.006;2023-05-15T04:20:58;101578.84;;;10.06;85.36
79703;BME280;69172;52.352;5.006;2023-05-15T04:23:24;101580.75;;;10.08;85.10
79703;BME280;69172;52.352;5.006;2023-05-15T04:25:49;101574.06;;;10.10;85.51
79703;BME280;69172;52.352;5.006;2023-05-15T04:28:15;101568.91;;;10.10;84.46
79703;BME280;69172;52.352;5.006;2023-05-15T04:30:41;101563.84;;;10.12;84.35
79703;BME280;69172;52.352;5.006;2023-05-15T04:33:06;101574.06;;;10.10;84.35
79703;BME280;69172;52.352;5.006;2023-05-15T04:35:32;101573.31;;;10.00;83.96
79703;BME280;69172;52.352;5.006;2023-05-15T04:37:57;101567.28;;;9.99;83.82
79703;BME280;69172;52.352;5.006;2023-05-15T04:40:22;101574.63;;;9.95;83.51
79703;BME280;69172;52.352;5.006;2023-05-15T04:42:48;101579.47;;;9.90;84.04
79703;BME280;69172;52.352;5.006;2023-05-15T04:45:13;101580.84;;;9.85;83.51
79703;BME280;69172;52.352;5.006;2023-05-15T04:47:39;101572.22;;;9.85;83.49
79703;BME280;69172;52.352;5.006;2023-05-15T04:50:04;101577.97;;;9.81;83.65
79703;BME280;69172;52.352;5.006;2023-05-15T04:52:31;101581.06;;;9.88;83.75
79703;BME280;69172;52.352;5.006;2023-05-15T04:54:57;101574.56;;;9.93;83.67
79703;BME280;69172;52.352;5.006;2023-05-15T04:57:23;101563.66;;;10.09;83.60
79703;BME280;69172;52.352;5.006;2023-05-15T04:59:49;101568.56;;;10.18;82.74
79703;BME280;69172;52.352;5.006;2023-05-15T05:02:18;101570.66;;;10.11;82.66
79703;BME280;69172;52.352;5.006;2023-05-15T05:04:43;101575.72;;;10.10;83.50
79703;BME280;69172;52.352;5.006;2023-05-15T05:07:10;101580.84;;;10.22;82.52
79703;BME280;69172;52.352;5.006;2023-05-15T05:09:38;101578.38;;;10.23;82.29
79703;BME280;69172;52.352;5.006;2023-05-15T05:12:05;101577.13;;;10.30;82.15
79703;BME280;69172;52.352;5.006;2023-05-15T05:14:30;101583.94;;;10.29;81.67
79703;BME280;69172;52.352;5.006;2023-05-15T05:16:56;101587.53;;;10.20;82.18
79703;BME280;69172;52.352;5.006;2023-05-15T05:19:21;101580.16;;;10.24;81.37
79703;BME280;69172;52.352;5.006;2023-05-15T05:21:46;101587.91;;;10.12;81.73
79703;BME280;69172;52.352;5.006;2023-05-15T05:24:12;101580.78;;;10.33;81.63
79703;BME280;69172;52.352;5.006;2023-05-15T05:26:37;101574.91;;;10.47;81.18
79703;BME280;69172;52.352;5.006;2023-05-15T05:29:02;101570.38;;;10.56;80.46
79703;BME280;69172;52.352;5.006;2023-05-15T05:31:28;101573.19;;;10.72;79.82
79703;BME280;69172;52.352;5.006;2023-05-15T05:33:53;101566.03;;;10.68;80.62
79703;BME280;69172;52.352;5.006;2023-05-15T05:36:18;101564.00;;;10.76;80.18
79703;BME280;69172;52.352;5.006;2023-05-15T05:38:44;101569.22;;;10.77;80.16
79703;BME280;69172;52.352;5.006;2023-05-15T05:41:10;101569.16;;;10.89;79.72
79703;BME280;69172;52.352;5.006;2023-05-15T05:43:35;101568.94;;;10.99;78.49
79703;BME280;69172;52.352;5.006;2023-05-15T05:46:01;101573.59;;;11.05;79.39
79703;BME280;69172;52.352;5.006;2023-05-15T05:48:26;101571.72;;;11.02;78.79
79703;BME280;69172;52.352;5.006;2023-05-15T05:50:53;101564.91;;;11.03;79.18
79703;BME280;69172;52.352;5.006;2023-05-15T05:53:18;101569.78;;;11.11;78.76
79703;BME280;69172;52.352;5.006;2023-05-15T05:55:44;101571.84;;;11.17;78.74
79703;BME280;69172;52.352;5.006;2023-05-15T05:58:10;101570.25;;;11.32;78.07
79703;BME280;69172;52.352;5.006;2023-05-15T06:00:35;101570.16;;;11.30;78.08
79703;BME280;69172;52.352;5.006;2023-05-15T06:03:01;101560.34;;;11.38;77.81
79703;BME280;69172;52.352;5.006;2023-05-15T06:05:27;101563.00;;;11.26;77.63
79703;BME280;69172;52.352;5.006;2023-05-15T06:07:53;101563.41;;;11.32;78.17
79703;BME280;69172;52.352;5.006;2023-05-15T06:10:20;101562.41;;;11.44;77.86
79703;BME280;69172;52.352;5.006;2023-05-15T06:12:46;101565.38;;;11.36;77.83
79703;BME280;69172;52.352;5.006;2023-05-15T06:15:12;101564.69;;;11.26;77.98
79703;BME280;69172;52.352;5.006;2023-05-15T06:17:37;101568.88;;;11.11;79.11
79703;BME280;69172;52.352;5.006;2023-05-15T06:20:03;101562.63;;;11.20;78.05
79703;BME280;69172;52.352;5.006;2023-05-15T06:22:36;101555.78;;;11.21;77.93
79703;BME280;69172;52.352;5.006;2023-05-15T06:25:03;101559.13;;;11.20;78.25
79703;BME280;69172;52.352;5.006;2023-05-15T06:27:29;101557.47;;;11.20;79.22
79703;BME280;69172;52.352;5.006;2023-05-15T06:29:54;101546.09;;;11.30;78.70
79703;BME280;69172;52.352;5.006;2023-05-15T06:32:20;101555.94;;;11.50;78.36
79703;BME280;69172;52.352;5.006;2023-05-15T06:34:45;101552.78;;;11.54;78.00
79703;BME280;69172;52.352;5.006;2023-05-15T06:37:10;101547.13;;;11.73;76.70
79703;BME280;69172;52.352;5.006;2023-05-15T06:39:36;101558.41;;;11.62;77.25
79703;BME280;69172;52.352;5.006;2023-05-15T06:42:01;101551.66;;;11.64;77.02
79703;BME280;69172;52.352;5.006;2023-05-15T06:44:28;101548.22;;;11.76;76.69
79703;BME280;69172;52.352;5.006;2023-05-15T06:46:54;101541.47;;;11.78;76.98
79703;BME280;69172;52.352;5.006;2023-05-15T06:49:21;101542.03;;;11.87;76.78
79703;BME280;69172;52.352;5.006;2023-05-15T06:51:46;101547.13;;;12.01;75.76
79703;BME280;69172;52.352;5.006;2023-05-15T06:54:14;101548.50;;;12.23;75.41
79703;BME280;69172;52.352;5.006;2023-05-15T06:56:39;101552.00;;;12.38;74.68
79703;BME280;69172;52.352;5.006;2023-05-15T06:59:05;101542.75;;;12.42;74.81
79703;BME280;69172;52.352;5.006;2023-05-15T07:01:30;101546.13;;;12.55;74.24
79703;BME280;69172;52.352;5.006;2023-05-15T07:03:56;101545.19;;;12.68;73.79
79703;BME280;69172;52.352;5.006;2023-05-15T07:06:22;101536.75;;;12.85;73.03
79703;BME280;69172;52.352;5.006;2023-05-15T07:08:48;101541.53;;;12.79;73.92
79703;BME280;69172;52.352;5.006;2023-05-15T07:11:13;101541.34;;;13.20;72.15
79703;BME280;69172;52.352;5.006;2023-05-15T07:13:39;101546.22;;;13.16;72.07
79703;BME280;69172;52.352;5.006;2023-05-15T07:16:04;101537.94;;;13.21;71.72
79703;BME280;69172;52.352;5.006;2023-05-15T07:18:30;101539.97;;;13.57;70.51
79703;BME280;69172;52.352;5.006;2023-05-15T07:20:55;101542.00;;;13.63;71.58
79703;BME280;69172;52.352;5.006;2023-05-15T07:23:20;101528.91;;;13.60;71.71
79703;BME280;69172;52.352;5.006;2023-05-15T07:25:46;101534.59;;;13.69;71.71
79703;BME280;69172;52.352;5.006;2023-05-15T07:28:11;101537.91;;;13.36;72.04
79703;BME280;69172;52.352;5.006;2023-05-15T07:30:37;101543.91;;;13.51;71.79
79703;BME280;69172;52.352;5.006;2023-05-15T07:33:02;101544.66;;;13.64;72.41
79703;BME280;69172;52.352;5.006;2023-05-15T07:35:28;101546.22;;;13.61;71.70
79703;BME280;69172;52.352;5.006;2023-05-15T07:37:53;101545.69;;;13.21;72.75
79703;BME280;69172;52.352;5.006;2023-05-15T07:40:18;101549.22;;;13.38;72.27
79703;BME280;69172;52.352;5.006;2023-05-15T07:42:44;101551.63;;;13.35;72.61
79703;BME280;69172;52.352;5.006;2023-05-15T07:45:09;101558.00;;;13.56;71.66
79703;BME280;69172;52.352;5.006;2023-05-15T07:47:35;101552.56;;;13.51;72.41
79703;BME280;69172;52.352;5.006;2023-05-15T07:50:01;101551.56;;;13.64;71.67
79703;BME280;69172;52.352;5.006;2023-05-15T07:52:26;101554.47;;;14.02;70.23
79703;BME280;69172;52.352;5.006;2023-05-15T07:54:52;101548.03;;;14.10;70.43
79703;BME280;69172;52.352;5.006;2023-05-15T07:57:18;101547.78;;;13.90;71.11
79703;BME280;69172;52.352;5.006;2023-05-15T07:59:44;101551.59;;;13.96;70.74
79703;BME280;69172;52.352;5.006;2023-05-15T08:02:09;101556.47;;;13.76;71.19
79703;BME280;69172;52.352;5.006;2023-05-15T08:04:35;101558.66;;;13.68;72.12
79703;BME280;69172;52.352;5.006;2023-05-15T08:07:01;101556.00;;;13.66;72.16
79703;BME280;69172;52.352;5.006;2023-05-15T08:09:26;101561.63;;;13.59;73.32
79703;BME280;69172;52.352;5.006;2023-05-15T08:11:55;101551.75;;;13.52;72.69
79703;BME280;69172;52.352;5.006;2023-05-15T08:14:21;101557.31;;;13.44;72.92
79703;BME280;69172;52.352;5.006;2023-05-15T08:16:48;101560.16;;;13.18;74.74
79703;BME280;69172;52.352;5.006;2023-05-15T08:19:13;101554.63;;;13.11;75.04
79703;BME280;69172;52.352;5.006;2023-05-15T08:21:48;101559.97;;;13.15;75.22
79703;BME280;69172;52.352;5.006;2023-05-15T08:24:13;101560.66;;;12.97;75.95
79703;BME280;69172;52.352;5.006;2023-05-15T08:26:42;101558.34;;;12.87;76.72
79703;BME280;69172;52.352;5.006;2023-05-15T08:29:07;101566.81;;;12.70;77.68
79703;BME280;69172;52.352;5.006;2023-05-15T08:31:33;101560.56;;;12.67;77.56
79703;BME280;69172;52.352;5.006;2023-05-15T08:33:58;101563.94;;;12.80;77.42
79703;BME280;69172;52.352;5.006;2023-05-15T08:36:25;101565.75;;;12.81;77.29
79703;BME280;69172;52.352;5.006;2023-05-15T08:38:51;101565.03;;;12.54;77.93
79703;BME280;69172;52.352;5.006;2023-05-15T08:41:27;101560.28;;;12.47;78.34
79703;BME280;69172;52.352;5.006;2023-05-15T08:43:56;101565.03;;;12.54;78.80
79703;BME280;69172;52.352;5.006;2023-05-15T08:46:22;101563.50;;;12.73;78.09
79703;BME280;69172;52.352;5.006;2023-05-15T08:48:49;101567.59;;;12.84;77.54
79703;BME280;69172;52.352;5.006;2023-05-15T08:51:18;101569.03;;;12.93;77.61
79703;BME280;69172;52.352;5.006;2023-05-15T08:53:46;101572.34;;;12.91;76.90
79703;BME280;69172;52.352;5.006;2023-05-15T08:56:12;101563.94;;;12.95;77.05
79703;BME280;69172;52.352;5.006;2023-05-15T08:58:37;101573.91;;;12.89;77.00
79703;BME280;69172;52.352;5.006;2023-05-15T09:01:04;101572.34;;;12.91;77.58
79703;BME280;69172;52.352;5.006;2023-05-15T09:03:29;101564.06;;;12.82;77.45
79703;BME280;69172;52.352;5.006;2023-05-15T09:05:55;101572.16;;;12.88;77.17
79703;BME280;69172;52.352;5.006;2023-05-15T09:08:21;101561.22;;;12.77;77.92
79703;BME280;69172;52.352;5.006;2023-05-15T09:10:48;101561.91;;;12.89;77.90
79703;BME280;69172;52.352;5.006;2023-05-15T09:13:13;101562.97;;;12.93;77.27
79703;BME280;69172;52.352;5.006;2023-05-15T09:15:39;101564.69;;;13.07;76.42
79703;BME280;69172;52.352;5.006;2023-05-15T09:18:05;101561.47;;;13.26;75.90
79703;BME280;69172;52.352;5.006;2023-05-15T09:20:34;101569.09;;;13.39;75.55
79703;BME280;69172;52.352;5.006;2023-05-15T09:23:01;101569.13;;;13.55;74.93
79703;BME280;69172;52.352;5.006;2023-05-15T09:25:42;101567.38;;;13.70;74.50
79703;BME280;69172;52.352;5.006;2023-05-15T09:28:31;101573.75;;;13.60;74.05
79703;BME280;69172;52.352;5.006;2023-05-15T09:30:59;101577.44;;;13.49;74.18
79703;BME280;69172;52.352;5.006;2023-05-15T09:33:33;101573.06;;;13.48;74.47
79703;BME280;69172;52.352;5.006;2023-05-15T09:36:00;101573.56;;;13.57;74.03
79703;BME280;69172;52.352;5.006;2023-05-15T09:38:26;101566.16;;;13.63;73.79
79703;BME280;69172;52.352;5.006;2023-05-15T09:41:01;101575.59;;;13.63;73.79
79703;BME280;69172;52.352;5.006;2023-05-15T09:43:35;101569.88;;;13.38;74.93
79703;BME280;69172;52.352;5.006;2023-05-15T09:46:01;101568.19;;;13.38;75.06
79703;BME280;69172;52.352;5.006;2023-05-15T09:48:27;101566.81;;;13.29;75.29
79703;BME280;69172;52.352;5.006;2023-05-15T09:51:20;101576.59;;;13.34;74.59
79703;BME280;69172;52.352;5.006;2023-05-15T09:53:57;101569.34;;;13.43;74.54
79703;BME280;69172;52.352;5.006;2023-05-15T09:56:23;101572.59;;;13.55;74.06
79703;BME280;69172;52.352;5.006;2023-05-15T09:58:53;101576.03;;;13.40;74.51
79703;BME280;69172;52.352;5.006;2023-05-15T10:01:21;101568.50;;;13.28;74.68
79703;BME280;69172;52.352;5.006;2023-05-15T10:04:00;101575.69;;;13.34;75.27
79703;BME280;69172;52.352;5.006;2023-05-15T10:06:25;101569.81;;;13.36;75.57
79703;BME280;69172;52.352;5.006;2023-05-15T10:08:52;101568.66;;;13.31;75.89
79703;BME280;69172;52.352;5.006;2023-05-15T10:11:19;101567.28;;;13.38;75.62
79703;BME280;69172;52.352;5.006;2023-05-15T10:13:48;101574.44;;;13.42;75.52
79703;BME280;69172;52.352;5.006;2023-05-15T10:16:14;101561.34;;;13.39;75.64
79703;BME280;69172;52.352;5.006;2023-05-15T10:18:40;101573.13;;;13.34;75.20
79703;BME280;69172;52.352;5.006;2023-05-15T10:21:08;101578.16;;;13.47;74.70
79703;BME280;69172;52.352;5.006;2023-05-15T10:23:35;101580.19;;;13.52;74.65
79703;BME280;69172;52.352;5.006;2023-05-15T10:26:10;101573.16;;;13.50;74.06
79703;BME280;69172;52.352;5.006;2023-05-15T10:28:37;101578.16;;;13.47;74.30
79703;BME280;69172;52.352;5.006;2023-05-15T10:31:04;101572.81;;;13.75;74.17
79703;BME280;69172;52.352;5.006;2023-05-15T10:33:30;101574.34;;;13.87;73.05
79703;BME280;69172;52.352;5.006;2023-05-15T10:35:57;101571.78;;;14.03;73.03
79703;BME280;69172;52.352;5.006;2023-05-15T10:38:24;101574.38;;;14.19;71.68
79703;BME280;69172;52.352;5.006;2023-05-15T10:40:51;101575.16;;;14.02;72.46
79703;BME280;69172;52.352;5.006;2023-05-15T10:43:19;101573.78;;;13.93;73.04
79703;BME280;69172;52.352;5.006;2023-05-15T10:45:45;101569.13;;;13.86;73.19
79703;BME280;69172;52.352;5.006;2023-05-15T10:48:11;101581.47;;;13.91;72.70
79703;BME280;69172;52.352;5.006;2023-05-15T10:50:48;101566.28;;;13.97;73.03
79703;BME280;69172;52.352;5.006;2023-05-15T10:53:15;101568.00;;;14.29;72.44
79703;BME280;69172;52.352;5.006;2023-05-15T10:55:48;101563.31;;;14.38;71.88
79703;BME280;69172;52.352;5.006;2023-05-15T10:58:13;101568.06;;;14.47;70.75
79703;BME280;69172;52.352;5.006;2023-05-15T11:00:43;101564.75;;;14.17;71.64
79703;BME280;69172;52.352;5.006;2023-05-15T11:03:13;101564.97;;;14.21;71.76
79703;BME280;69172;52.352;5.006;2023-05-15T11:06:05;101563.25;;;14.37;71.38
79703;BME280;69172;52.352;5.006;2023-05-15T11:08:31;101562.50;;;14.39;71.17
79703;BME280;69172;52.352;5.006;2023-05-15T11:10:56;101565.16;;;14.41;70.42
79703;BME280;69172;52.352;5.006;2023-05-15T11:13:22;101563.59;;;14.60;69.96
79703;BME280;69172;52.352;5.006;2023-05-15T11:15:48;101561.16;;;14.63;69.82
79703;BME280;69172;52.352;5.006;2023-05-15T11:18:18;101560.94;;;14.59;69.35
79703;BME280;69172;52.352;5.006;2023-05-15T11:23:20;101562.44;;;15.05;68.46
79703;BME280;69172;52.352;5.006;2023-05-15T11:25:52;101563.31;;;15.23;67.67
79703;BME280;69172;52.352;5.006;2023-05-15T11:28:23;101560.16;;;14.95;68.10
79703;BME280;69172;52.352;5.006;2023-05-15T11:30:50;101554.56;;;15.04;68.15
79703;BME280;69172;52.352;5.006;2023-05-15T11:33:18;101546.94;;;15.07;67.84
79703;BME280;69172;52.352;5.006;2023-05-15T11:35:46;101551.38;;;15.09;68.22
79703;BME280;69172;52.352;5.006;2023-05-15T11:38:14;101548.34;;;15.18;67.63
79703;BME280;69172;52.352;5.006;2023-05-15T11:40:45;101555.47;;;15.04;68.57
79703;BME280;69172;52.352;5.006;2023-05-15T11:43:33;101557.38;;;15.43;67.43
79703;BME280;69172;52.352;5.006;2023-05-15T11:46:12;101553.78;;;15.77;65.07
79703;BME280;69172;52.352;5.006;2023-05-15T11:48:46;101555.41;;;15.92;64.04
79703;BME280;69172;52.352;5.006;2023-05-15T11:51:22;101543.22;;;16.11;63.27
79703;BME280;69172;52.352;5.006;2023-05-15T11:53:51;101534.75;;;15.95;64.03
79703;BME280;69172;52.352;5.006;2023-05-15T11:56:25;101539.47;;;16.04;63.60
79703;BME280;69172;52.352;5.006;2023-05-15T11:58:57;101538.78;;;15.89;64.01
79703;BME280;69172;52.352;5.006;2023-05-15T12:01:23;101546.22;;;15.81;63.80
79703;BME280;69172;52.352;5.006;2023-05-15T12:03:49;101549.91;;;15.32;65.49
79703;BME280;69172;52.352;5.006;2023-05-15T12:06:15;101543.31;;;15.21;66.65
79703;BME280;69172;52.352;5.006;2023-05-15T12:08:41;101550.00;;;15.51;66.05
79703;BME280;69172;52.352;5.006;2023-05-15T12:11:08;101553.41;;;15.32;65.99
79703;BME280;69172;52.352;5.006;2023-05-15T12:13:34;101564.41;;;15.28;65.94
79703;BME280;69172;52.352;5.006;2023-05-15T12:16:03;101556.34;;;15.22;66.16
79703;BME280;69172;52.352;5.006;2023-05-15T12:18:32;101563.91;;;15.53;65.17
79703;BME280;69172;52.352;5.006;2023-05-15T12:20:58;101565.50;;;15.33;65.90
79703;BME280;69172;52.352;5.006;2023-05-15T12:23:26;101568.94;;;15.15;66.75
79703;BME280;69172;52.352;5.006;2023-05-15T12:25:58;101564.94;;;15.21;66.49
79703;BME280;69172;52.352;5.006;2023-05-15T12:28:25;101561.38;;;15.37;65.62
79703;BME280;69172;52.352;5.006;2023-05-15T12:30:51;101569.31;;;15.05;67.61
79703;BME280;69172;52.352;5.006;2023-05-15T12:33:17;101567.56;;;14.70;69.23
79703;BME280;69172;52.352;5.006;2023-05-15T12:35:49;101556.66;;;14.43;69.85
79703;BME280;69172;52.352;5.006;2023-05-15T12:38:16;101566.28;;;14.13;71.18
79703;BME280;69172;52.352;5.006;2023-05-15T12:40:42;101574.38;;;14.03;71.58
79703;BME280;69172;52.352;5.006;2023-05-15T12:43:09;101573.47;;;13.87;71.75
79703;BME280;69172;52.352;5.006;2023-05-15T12:45:36;101573.56;;;14.04;71.30
79703;BME280;69172;52.352;5.006;2023-05-15T12:48:03;101569.34;;;13.90;72.05
79703;BME280;69172;52.352;5.006;2023-05-15T12:50:32;101570.25;;;14.07;71.02
79703;BME280;69172;52.352;5.006;2023-05-15T12:53:01;101576.06;;;14.19;71.15
79703;BME280;69172;52.352;5.006;2023-05-15T12:55:34;101586.41;;;14.03;70.59
79703;BME280;69172;52.352;5.006;2023-05-15T12:58:05;101571.53;;;13.99;71.48
79703;BME280;69172;52.352;5.006;2023-05-15T13:00:33;101575.44;;;14.07;71.62